createdAt,value
2022-12-03T00:00:35.907Z,100699.91
2022-12-03T00:03:03.107Z,100708.09
2022-12-03T00:05:30.088Z,100718.22
2022-12-03T00:07:57.160Z,100710.16
2022-12-03T00:10:24.187Z,100713.63
2022-12-03T00:12:51.027Z,100711.88
2022-12-03T00:15:18.302Z,100710.16
2022-12-03T00:17:45.225Z,100721.22
2022-12-03T00:20:21.830Z,100715.31
2022-12-03T00:22:49.143Z,100722.06
2022-12-03T00:25:16.959Z,100719.88
2022-12-03T00:27:44.041Z,100709.38
2022-12-03T00:30:12.296Z,100721.28
2022-12-03T00:32:39.236Z,100717.59
2022-12-03T00:35:06.541Z,100722.84
2022-12-03T00:37:35.200Z,100727.88
2022-12-03T00:40:06.254Z,100732.19
2022-12-03T00:42:33.928Z,100729.75
2022-12-03T00:45:00.809Z,100737.06
2022-12-03T00:47:27.716Z,100730.13
2022-12-03T00:49:54.600Z,100735.38
2022-12-03T00:52:21.646Z,100728.59
2022-12-03T00:54:48.991Z,100721.78
2022-12-03T00:57:16.422Z,100738.59
2022-12-03T00:59:43.413Z,100718.59
2022-12-03T01:02:10.546Z,100725.06
2022-12-03T01:04:37.691Z,100740.44
2022-12-03T01:07:04.982Z,100734.44
2022-12-03T01:09:32.074Z,100735.09
2022-12-03T01:11:59.199Z,100744.78
2022-12-03T01:14:26.220Z,100739.47
2022-12-03T01:16:53.082Z,100733.59
2022-12-03T01:19:20.063Z,100747.28
2022-12-03T01:21:50.950Z,100751.19
2022-12-03T01:24:19.140Z,100748.69
2022-12-03T01:26:46.088Z,100744.03
2022-12-03T01:29:13.264Z,100749.25
2022-12-03T01:31:58.967Z,100755.22
2022-12-03T01:34:25.860Z,100755.16
2022-12-03T01:36:52.854Z,100749.00
2022-12-03T01:39:20.363Z,100753.63
2022-12-03T01:41:49.386Z,100760.69
2022-12-03T01:44:21.398Z,100757.69
2022-12-03T01:46:50.974Z,100752.59
2022-12-03T01:49:25.033Z,100763.28
2022-12-03T01:51:53.810Z,100761.56
2022-12-03T01:54:27.275Z,100759.00
2022-12-03T01:56:55.381Z,100758.22
2022-12-03T01:59:28.252Z,100770.47
2022-12-03T02:01:55.201Z,100758.53
2022-12-03T02:04:23.074Z,100764.50
2022-12-03T02:06:50.146Z,100766.38
2022-12-03T02:09:18.162Z,100767.34
2022-12-03T02:11:49.516Z,100766.56
2022-12-03T02:14:21.146Z,100765.91
2022-12-03T02:16:48.579Z,100766.41
2022-12-03T02:19:26.994Z,100771.84
2022-12-03T02:21:59.834Z,100768.50
2022-12-03T02:24:40.036Z,100766.78
2022-12-03T02:27:06.930Z,100767.53
2022-12-03T02:29:33.844Z,100766.00
2022-12-03T02:32:00.965Z,100773.13
2022-12-03T02:34:39.911Z,100768.63
2022-12-03T02:37:12.428Z,100775.38
2022-12-03T02:39:42.900Z,100787.47
2022-12-03T02:42:29.669Z,100785.59
2022-12-03T02:45:04.921Z,100783.44
2022-12-03T02:47:35.749Z,100781.31
2022-12-03T02:50:03.397Z,100779.69
2022-12-03T02:52:30.835Z,100787.31
2022-12-03T02:54:58.489Z,100782.97
2022-12-03T02:57:25.409Z,100794.22
2022-12-03T02:59:52.345Z,100786.28
2022-12-03T03:02:20.323Z,100785.34
2022-12-03T03:04:47.935Z,100780.09
2022-12-03T03:07:16.205Z,100783.94
2022-12-03T03:09:43.290Z,100775.03
2022-12-03T03:12:10.900Z,100777.81
2022-12-03T03:14:38.186Z,100776.50
2022-12-03T03:17:05.272Z,100776.75
2022-12-03T03:19:33.019Z,100779.22
2022-12-03T03:22:01.368Z,100783.22
2022-12-03T03:24:28.306Z,100782.00
2022-12-03T03:26:55.439Z,100788.41
2022-12-03T03:29:22.502Z,100786.56
2022-12-03T03:31:49.804Z,100782.69
2022-12-03T03:34:17.686Z,100778.81
2022-12-03T03:36:46.042Z,100782.41
2022-12-03T03:39:13.873Z,100787.09
2022-12-03T03:41:42.742Z,100785.97
2022-12-03T03:44:10.045Z,100780.59
2022-12-03T03:46:37.784Z,100791.03
2022-12-03T03:49:05.822Z,100794.41
2022-12-03T03:51:35.887Z,100795.75
2022-12-03T03:54:04.952Z,100792.34
2022-12-03T03:56:32.913Z,100801.16
2022-12-03T03:59:00.519Z,100798.19
2022-12-03T04:01:28.137Z,100795.56
2022-12-03T04:03:55.971Z,100796.50
2022-12-03T04:06:22.945Z,100799.03
2022-12-03T04:08:49.808Z,100804.50
2022-12-03T04:11:35.219Z,100809.28
2022-12-03T04:14:02.541Z,100807.28
2022-12-03T04:16:29.584Z,100806.25
2022-12-03T04:18:56.517Z,100805.09
2022-12-03T04:21:42.723Z,100809.22
2022-12-03T04:24:11.617Z,100814.91
2022-12-03T04:26:56.906Z,100810.41
2022-12-03T04:29:24.225Z,100813.47
2022-12-03T04:32:26.502Z,100820.31
2022-12-03T04:35:11.770Z,100822.00
2022-12-03T04:37:38.601Z,100830.78
2022-12-03T04:40:26.393Z,100821.94
2022-12-03T04:42:53.250Z,100831.34
2022-12-03T04:45:20.133Z,100823.03
2022-12-03T04:47:47.174Z,100837.63
2022-12-03T04:50:14.087Z,100825.22
2022-12-03T04:52:40.908Z,100825.22
2022-12-03T04:55:08.332Z,100828.59
2022-12-03T04:57:35.192Z,100830.09
2022-12-03T05:00:02.696Z,100819.41
2022-12-03T05:02:29.617Z,100835.78
2022-12-03T05:04:56.625Z,100844.19
2022-12-03T05:07:23.644Z,100839.72
2022-12-03T05:09:50.497Z,100845.09
2022-12-03T05:12:17.492Z,100855.47
2022-12-03T05:14:44.310Z,100852.84
2022-12-03T05:17:11.375Z,100851.19
2022-12-03T05:19:56.920Z,100848.47
2022-12-03T05:22:23.770Z,100846.78
2022-12-03T05:24:50.786Z,100857.28
2022-12-03T05:27:23.455Z,100858.09
2022-12-03T05:29:51.083Z,100850.06
2022-12-03T05:32:18.003Z,100843.28
2022-12-03T05:34:45.004Z,100848.69
2022-12-03T05:37:12.023Z,100853.88
2022-12-03T05:39:38.991Z,100858.28
2022-12-03T05:42:24.643Z,100857.00
2022-12-03T05:44:51.775Z,100855.22
2022-12-03T05:47:18.800Z,100853.53
2022-12-03T05:49:45.755Z,100845.47
2022-12-03T05:52:12.970Z,100844.34
2022-12-03T05:54:39.853Z,100846.69
2022-12-03T05:57:07.092Z,100844.63
2022-12-03T05:59:34.511Z,100851.63
2022-12-03T06:02:01.456Z,100852.09
2022-12-03T06:04:28.421Z,100854.25
2022-12-03T06:06:55.811Z,100858.09
2022-12-03T06:09:22.688Z,100858.94
2022-12-03T06:11:54.077Z,100861.88
2022-12-03T06:14:21.360Z,100856.41
2022-12-03T06:16:48.222Z,100875.94
2022-12-03T06:19:15.107Z,100875.34
2022-12-03T06:21:42.046Z,100871.59
2022-12-03T06:24:08.927Z,100879.22
2022-12-03T06:26:35.823Z,100878.16
2022-12-03T06:29:02.715Z,100885.78
2022-12-03T06:31:29.906Z,100887.78
2022-12-03T06:33:57.086Z,100874.72
2022-12-03T06:36:24.669Z,100877.50
2022-12-03T06:38:51.556Z,100890.56
2022-12-03T06:41:18.434Z,100886.91
2022-12-03T06:43:45.269Z,100879.59
2022-12-03T06:46:12.570Z,100883.41
2022-12-03T06:48:39.478Z,100871.22
2022-12-03T06:51:06.338Z,100884.84
2022-12-03T06:53:33.282Z,100886.03
2022-12-03T06:56:00.204Z,100883.94
2022-12-03T06:58:27.101Z,100886.09
2022-12-03T07:00:53.970Z,100881.94
2022-12-03T07:03:21.385Z,100898.13
2022-12-03T07:05:48.217Z,100899.97
2022-12-03T07:08:15.095Z,100901.56
2022-12-03T07:10:42.001Z,100901.66
2022-12-03T07:13:08.947Z,100900.44
2022-12-03T07:15:35.793Z,100906.63
2022-12-03T07:18:02.752Z,100898.63
2022-12-03T07:20:29.617Z,100904.41
2022-12-03T07:22:57.263Z,100900.63
2022-12-03T07:25:24.270Z,100917.03
2022-12-03T07:27:51.197Z,100921.41
2022-12-03T07:30:18.846Z,100917.38
2022-12-03T07:32:45.707Z,100913.88
2022-12-03T07:35:12.580Z,100913.28
2022-12-03T07:37:39.434Z,100902.13
2022-12-03T07:40:06.957Z,100913.22
2022-12-03T07:42:33.776Z,100905.28
2022-12-03T07:45:00.636Z,100914.50
2022-12-03T07:47:27.470Z,100920.03
2022-12-03T07:49:54.276Z,100922.94
2022-12-03T07:52:21.417Z,100913.41
2022-12-03T07:54:48.315Z,100921.91
2022-12-03T07:57:15.303Z,100917.69
2022-12-03T07:59:42.227Z,100913.78
2022-12-03T08:02:09.617Z,100911.03
2022-12-03T08:04:36.589Z,100918.53
2022-12-03T08:07:03.489Z,100922.09
2022-12-03T08:09:31.516Z,100926.44
2022-12-03T08:12:03.016Z,100919.75
2022-12-03T08:14:29.959Z,100923.53
2022-12-03T08:16:57.597Z,100930.00
2022-12-03T08:19:24.911Z,100932.91
2022-12-03T08:21:54.123Z,100941.84
2022-12-03T08:24:25.009Z,100936.13
2022-12-03T08:26:51.881Z,100936.88
2022-12-03T08:29:20.129Z,100928.94
2022-12-03T08:31:52.494Z,100934.13
2022-12-03T08:34:34.156Z,100938.53
2022-12-03T08:37:16.687Z,100929.63
2022-12-03T08:39:48.756Z,100928.81
2022-12-03T08:42:43.824Z,100939.38
2022-12-03T08:45:39.937Z,100935.38
2022-12-03T08:48:27.295Z,100938.38
2022-12-03T08:51:03.656Z,100935.03
2022-12-03T08:53:36.166Z,100934.72
2022-12-03T08:56:05.781Z,100929.47
2022-12-03T08:58:44.462Z,100926.00
2022-12-03T09:01:11.436Z,100930.88
2022-12-03T09:03:44.590Z,100922.03
2022-12-03T09:06:11.577Z,100925.97
2022-12-03T09:08:38.385Z,100928.19
2022-12-03T09:11:05.390Z,100921.09
2022-12-03T09:13:32.255Z,100913.66
2022-12-03T09:15:59.248Z,100921.97
2022-12-03T09:18:26.046Z,100916.38
2022-12-03T09:20:52.949Z,100922.56
2022-12-03T09:23:19.957Z,100913.47
2022-12-03T09:25:46.822Z,100913.47
2022-12-03T09:28:13.649Z,100909.53
2022-12-03T09:30:40.550Z,100912.44
2022-12-03T09:33:07.416Z,100908.50
2022-12-03T09:35:34.259Z,100911.72
2022-12-03T09:38:01.049Z,100903.59
2022-12-03T09:40:29.120Z,100903.69
2022-12-03T09:42:58.746Z,100904.16
2022-12-03T09:45:25.724Z,100898.63
2022-12-03T09:47:52.933Z,100904.03
2022-12-03T09:50:25.516Z,100891.38
2022-12-03T09:52:56.985Z,100893.59
2022-12-03T09:55:26.264Z,100896.72
2022-12-03T09:57:54.384Z,100894.88
2022-12-03T10:00:29.978Z,100893.75
2022-12-03T10:02:59.505Z,100889.97
2022-12-03T10:05:26.507Z,100895.81
2022-12-03T10:07:53.558Z,100896.38
2022-12-03T10:10:23.603Z,100899.16
2022-12-03T10:12:52.147Z,100899.94
2022-12-03T10:15:22.557Z,100895.59
2022-12-03T10:17:52.642Z,100889.25
2022-12-03T10:20:21.992Z,100889.16
2022-12-03T10:22:49.311Z,100897.00
2022-12-03T10:25:21.860Z,100891.94
2022-12-03T10:28:26.681Z,100892.16
2022-12-03T10:30:55.761Z,100884.66
2022-12-03T10:33:29.652Z,100885.94
2022-12-03T10:35:56.771Z,100888.81
2022-12-03T10:38:23.765Z,100885.09
2022-12-03T10:40:50.957Z,100887.59
2022-12-03T10:43:23.972Z,100884.09
2022-12-03T10:46:02.070Z,100891.94
2022-12-03T10:48:30.679Z,100878.63
2022-12-03T10:51:07.422Z,100872.63
2022-12-03T10:53:37.210Z,100877.44
2022-12-03T10:56:07.013Z,100875.66
2022-12-03T10:58:41.802Z,100868.00
2022-12-03T11:01:26.372Z,100876.31
2022-12-03T11:03:56.693Z,100875.47
2022-12-03T11:06:23.870Z,100875.88
2022-12-03T11:08:58.532Z,100869.28
2022-12-03T11:11:31.124Z,100862.09
2022-12-03T11:13:59.188Z,100859.53
2022-12-03T11:16:41.108Z,100863.25
2022-12-03T11:19:38.164Z,100857.13
2022-12-03T11:22:05.150Z,100857.69
2022-12-03T11:24:33.897Z,100861.13
2022-12-03T11:27:00.675Z,100856.31
2022-12-03T11:29:54.675Z,100860.78
2022-12-03T11:32:42.370Z,100849.03
2022-12-03T11:35:24.200Z,100853.38
2022-12-03T11:37:51.422Z,100848.97
2022-12-03T11:40:18.242Z,100848.38
2022-12-03T11:42:47.259Z,100855.19
2022-12-03T11:45:22.746Z,100856.34
2022-12-03T11:47:58.778Z,100854.53
2022-12-03T11:50:39.853Z,100849.69
2022-12-03T11:53:16.222Z,100856.16
2022-12-03T11:55:49.011Z,100850.53
2022-12-03T11:58:26.340Z,100866.50
2022-12-03T12:00:58.795Z,100866.50
2022-12-03T12:03:27.263Z,100863.84
2022-12-03T12:06:08.343Z,100864.56
2022-12-03T12:08:38.490Z,100865.13
2022-12-03T12:11:17.698Z,100863.34
2022-12-03T12:13:44.595Z,100874.50
2022-12-03T12:16:11.860Z,100866.97
2022-12-03T12:18:53.709Z,100867.09
2022-12-03T12:21:50.266Z,100865.75
2022-12-03T12:24:43.599Z,100868.81
2022-12-03T12:27:12.920Z,100868.47
2022-12-03T12:29:41.788Z,100863.53
2022-12-03T12:32:15.921Z,100866.75
2022-12-03T12:34:48.848Z,100870.16
2022-12-03T12:37:21.898Z,100865.09
2022-12-03T12:39:52.774Z,100862.19
2022-12-03T12:42:43.100Z,100872.03
2022-12-03T12:45:20.034Z,100869.59
2022-12-03T12:48:06.831Z,100869.50
2022-12-03T12:50:34.458Z,100871.44
2022-12-03T12:53:25.046Z,100872.78
2022-12-03T12:56:00.167Z,100881.38
2022-12-03T12:58:30.770Z,100882.19
2022-12-03T13:01:04.093Z,100877.69
2022-12-03T13:03:34.991Z,100876.34
2022-12-03T13:06:02.405Z,100874.69
2022-12-03T13:08:38.648Z,100871.28
2022-12-03T13:11:06.170Z,100874.16
2022-12-03T13:13:43.532Z,100880.75
2022-12-03T13:16:26.060Z,100881.69
2022-12-03T13:18:57.956Z,100878.19
2022-12-03T13:21:42.969Z,100878.06
2022-12-03T13:24:34.336Z,100879.88
2022-12-03T13:27:20.600Z,100881.09
2022-12-03T13:30:13.569Z,100883.25
2022-12-03T13:32:42.492Z,100879.00
2022-12-03T13:35:27.463Z,100886.47
2022-12-03T13:37:54.350Z,100883.81
2022-12-03T13:40:25.759Z,100889.59
2022-12-03T13:42:53.300Z,100885.56
2022-12-03T13:45:20.061Z,100884.75
2022-12-03T13:47:56.092Z,100883.00
2022-12-03T13:50:38.821Z,100888.19
2022-12-03T13:53:11.806Z,100890.88
2022-12-03T13:55:43.790Z,100896.28
2022-12-03T13:58:10.739Z,100896.44
2022-12-03T14:00:37.856Z,100899.28
2022-12-03T14:03:05.139Z,100908.34
2022-12-03T14:05:32.007Z,100911.94
2022-12-03T14:08:01.922Z,100909.44
2022-12-03T14:10:30.033Z,100902.28
2022-12-03T14:12:57.267Z,100911.97
2022-12-03T14:15:26.307Z,100909.91
2022-12-03T14:17:53.324Z,100913.47
2022-12-03T14:20:20.319Z,100918.09
2022-12-03T14:22:47.152Z,100916.50
2022-12-03T14:25:15.230Z,100912.16
2022-12-03T14:27:42.162Z,100922.38
2022-12-03T14:30:09.628Z,100923.44
2022-12-03T14:32:36.618Z,100917.78
2022-12-03T14:35:08.306Z,100920.38
2022-12-03T14:37:36.691Z,100931.84
2022-12-03T14:40:03.969Z,100940.25
2022-12-03T14:42:30.875Z,100937.81
2022-12-03T14:44:57.741Z,100938.47
2022-12-03T14:47:24.608Z,100935.72
2022-12-03T14:49:52.770Z,100938.22
2022-12-03T14:52:20.075Z,100941.88
2022-12-03T14:54:46.966Z,100936.78
2022-12-03T14:57:15.464Z,100934.28
2022-12-03T14:59:43.595Z,100937.25
2022-12-03T15:02:11.484Z,100936.69
2022-12-03T15:04:40.065Z,100934.44
2022-12-03T15:07:07.506Z,100934.16
2022-12-03T15:09:34.502Z,100940.94
2022-12-03T15:12:03.522Z,100934.47
2022-12-03T15:14:30.349Z,100941.25
2022-12-03T15:16:57.462Z,100935.94
2022-12-03T15:19:24.372Z,100936.09
2022-12-03T15:21:51.210Z,100929.88
2022-12-03T15:24:18.014Z,100932.56
2022-12-03T15:26:44.821Z,100938.16
2022-12-03T15:29:11.950Z,100927.28
2022-12-03T15:31:38.870Z,100925.84
2022-12-03T15:34:05.934Z,100940.81
2022-12-03T15:36:32.857Z,100940.50
2022-12-03T15:38:59.803Z,100944.91
2022-12-03T15:41:29.753Z,100943.34
2022-12-03T15:44:02.191Z,100941.44
2022-12-03T15:46:29.738Z,100948.47
2022-12-03T15:48:56.937Z,100949.25
2022-12-03T15:51:24.932Z,100945.59
2022-12-03T15:53:51.947Z,100949.31
2022-12-03T15:56:18.855Z,100951.09
2022-12-03T15:58:45.840Z,100949.69
2022-12-03T16:01:13.824Z,100955.06
2022-12-03T16:03:41.621Z,100955.25
2022-12-03T16:06:08.852Z,100963.06
2022-12-03T16:08:35.928Z,100959.84
2022-12-03T16:11:03.800Z,100966.50
2022-12-03T16:13:31.282Z,100966.63
2022-12-03T16:15:58.172Z,100969.38
2022-12-03T16:18:25.206Z,100968.13
2022-12-03T16:20:52.393Z,100970.19
2022-12-03T16:23:19.377Z,100975.16
2022-12-03T16:25:46.385Z,100971.53
2022-12-03T16:28:13.263Z,100974.13
2022-12-03T16:30:40.245Z,100980.78
2022-12-03T16:33:07.113Z,100977.81
2022-12-03T16:35:34.147Z,100986.94
2022-12-03T16:38:01.137Z,100971.34
2022-12-03T16:40:27.955Z,100979.69
2022-12-03T16:42:56.524Z,100985.22
2022-12-03T16:45:23.406Z,100991.16
2022-12-03T16:47:50.333Z,100990.88
2022-12-03T16:50:24.465Z,100995.75
2022-12-03T16:52:55.974Z,100995.38
2022-12-03T16:55:22.921Z,101005.16
2022-12-03T16:57:49.810Z,101005.72
2022-12-03T17:00:17.209Z,101007.09
2022-12-03T17:02:44.171Z,101005.13
2022-12-03T17:05:11.174Z,101006.47
2022-12-03T17:07:38.069Z,101003.28
2022-12-03T17:10:05.558Z,101013.00
2022-12-03T17:13:00.808Z,101014.03
2022-12-03T17:15:19.748Z,101019.97
2022-12-03T17:17:46.708Z,101010.13
2022-12-03T17:20:14.816Z,101017.41
2022-12-03T17:22:41.916Z,101023.16
2022-12-03T17:25:09.752Z,101024.91
2022-12-03T17:27:42.101Z,101020.16
2022-12-03T17:30:13.017Z,101018.50
2022-12-03T17:32:40.070Z,101019.94
2022-12-03T17:35:07.714Z,101026.91
2022-12-03T17:37:34.777Z,101029.38
2022-12-03T17:40:02.067Z,101021.91
2022-12-03T17:42:28.973Z,101027.91
2022-12-03T17:44:55.814Z,101031.13
2022-12-03T17:47:24.512Z,101024.09
2022-12-03T17:49:51.645Z,101027.28
2022-12-03T17:52:18.794Z,101024.97
2022-12-03T17:55:09.132Z,101031.28
2022-12-03T17:57:32.492Z,101037.06
2022-12-03T17:59:59.422Z,101034.09
2022-12-03T18:02:26.336Z,101040.28
2022-12-03T18:04:53.111Z,101035.44
2022-12-03T18:07:19.963Z,101029.44
2022-12-03T18:09:46.824Z,101035.16
2022-12-03T18:12:13.789Z,101031.03
2022-12-03T18:14:40.728Z,101034.50
2022-12-03T18:17:07.609Z,101030.09
2022-12-03T18:19:34.535Z,101034.19
2022-12-03T18:22:01.423Z,101038.53
2022-12-03T18:24:28.294Z,101030.47
2022-12-03T18:26:55.131Z,101039.88
2022-12-03T18:29:21.987Z,101038.41
2022-12-03T18:31:48.905Z,101040.13
2022-12-03T18:34:15.821Z,101037.69
2022-12-03T18:36:42.864Z,101041.78
2022-12-03T18:39:18.412Z,101044.78
2022-12-03T18:41:45.262Z,101041.97
2022-12-03T18:44:12.609Z,101036.00
2022-12-03T18:46:55.180Z,101033.59
2022-12-03T18:49:22.473Z,101041.63
2022-12-03T18:51:52.122Z,101043.69
2022-12-03T18:54:22.762Z,101037.25
2022-12-03T18:56:49.745Z,101045.81
2022-12-03T18:59:16.558Z,101041.13
2022-12-03T19:01:43.471Z,101038.41
2022-12-03T19:04:10.814Z,101038.84
2022-12-03T19:06:37.625Z,101045.03
2022-12-03T19:09:04.927Z,101044.06
2022-12-03T19:11:34.039Z,101042.97
2022-12-03T19:14:03.100Z,101043.91
2022-12-03T19:16:30.103Z,101040.25
2022-12-03T19:18:57.319Z,101054.75
2022-12-03T19:21:24.181Z,101058.06
2022-12-03T19:26:37.809Z,101059.63
2022-12-03T19:29:04.939Z,101054.69
2022-12-03T19:31:33.566Z,101063.69
2022-12-03T19:34:00.529Z,101064.28
2022-12-03T19:36:29.980Z,101062.75
2022-12-03T19:38:58.659Z,101061.75
2022-12-03T19:41:28.081Z,101064.19
2022-12-03T19:43:56.210Z,101058.06
2022-12-03T19:46:25.508Z,101066.31
2022-12-03T19:48:54.089Z,101063.44
2022-12-03T19:51:35.601Z,101062.69
2022-12-03T19:54:05.193Z,101063.69
2022-12-03T19:56:32.112Z,101066.91
2022-12-03T19:58:59.260Z,101061.16
2022-12-03T20:01:30.025Z,101062.59
2022-12-03T20:03:59.253Z,101065.31
2022-12-03T20:06:28.770Z,101067.84
2022-12-03T20:09:01.611Z,101061.84
2022-12-03T20:11:31.231Z,101066.13
2022-12-03T20:14:00.829Z,101071.38
2022-12-03T20:16:29.178Z,101068.88
2022-12-03T20:19:01.722Z,101067.16
2022-12-03T20:21:34.299Z,101070.06
2022-12-03T20:24:01.597Z,101067.50
2022-12-03T20:26:29.155Z,101071.38
2022-12-03T20:28:56.949Z,101066.88
2022-12-03T20:31:26.920Z,101065.00
2022-12-03T20:33:56.923Z,101067.84
2022-12-03T20:36:24.943Z,101066.28
2022-12-03T20:38:57.065Z,101061.84
2022-12-03T20:41:24.532Z,101059.13
2022-12-03T20:43:52.095Z,101059.31
2022-12-03T20:46:37.455Z,101058.47
2022-12-03T20:49:04.454Z,101056.03
2022-12-03T20:51:31.738Z,101053.63
2022-12-03T20:53:59.865Z,101056.09
2022-12-03T20:56:31.365Z,101054.81
2022-12-03T20:59:04.940Z,101056.88
2022-12-03T21:01:32.207Z,101056.88
2022-12-03T21:03:59.147Z,101055.09
2022-12-03T21:06:29.966Z,101061.16
2022-12-03T21:08:58.084Z,101058.19
2022-12-03T21:11:29.771Z,101066.59
2022-12-03T21:13:57.138Z,101069.31
2022-12-03T21:16:46.055Z,101072.63
2022-12-03T21:19:13.804Z,101066.41
2022-12-03T21:21:40.694Z,101073.44
2022-12-03T21:24:08.192Z,101069.22
2022-12-03T21:26:35.119Z,101075.44
2022-12-03T21:29:01.978Z,101075.47
2022-12-03T21:31:30.409Z,101085.38
2022-12-03T21:33:57.962Z,101084.72
2022-12-03T21:36:25.817Z,101085.94
2022-12-03T21:38:53.164Z,101090.31
2022-12-03T21:41:20.135Z,101087.50
2022-12-03T21:43:47.021Z,101079.38
2022-12-03T21:47:09.617Z,101077.38
2022-12-03T21:49:04.137Z,101080.47
2022-12-03T21:51:31.058Z,101084.91
2022-12-03T21:53:58.022Z,101080.94
2022-12-03T21:56:24.999Z,101082.28
2022-12-03T21:58:51.867Z,101079.22
2022-12-03T22:01:20.786Z,101086.84
2022-12-03T22:03:48.213Z,101076.16
2022-12-03T22:06:15.882Z,101079.97
2022-12-03T22:08:43.645Z,101085.84
2022-12-03T22:11:13.494Z,101074.72
2022-12-03T22:13:41.206Z,101078.03
2022-12-03T22:16:12.924Z,101064.81
2022-12-03T22:18:39.833Z,101073.66
2022-12-03T22:21:09.465Z,101071.16
2022-12-03T22:23:37.533Z,101067.63
2022-12-03T22:26:07.228Z,101068.28
2022-12-03T22:28:35.218Z,101070.00
2022-12-03T22:31:09.490Z,101061.69
2022-12-03T22:33:37.404Z,101055.78
2022-12-03T22:36:07.745Z,101054.19
2022-12-03T22:38:34.715Z,101055.34
2022-12-03T22:41:08.459Z,101056.34
2022-12-03T22:43:37.269Z,101055.34
2022-12-03T22:46:05.788Z,101052.09
2022-12-03T22:48:36.394Z,101045.91
2022-12-03T22:51:04.036Z,101053.78
2022-12-03T22:53:30.962Z,101054.03
2022-12-03T22:55:59.776Z,101049.56
2022-12-03T22:58:28.010Z,101044.47
2022-12-03T23:01:01.212Z,101048.59
2022-12-03T23:03:30.088Z,101052.31
2022-12-03T23:05:56.960Z,101050.84
2022-12-03T23:08:23.880Z,101042.19
2022-12-03T23:10:52.793Z,101044.47
2022-12-03T23:13:20.917Z,101033.47
2022-12-03T23:15:50.344Z,101035.59
2022-12-03T23:18:18.610Z,101042.03
2022-12-03T23:20:48.236Z,101032.38
2022-12-03T23:23:16.079Z,101044.41
2022-12-03T23:25:43.152Z,101046.72
2022-12-03T23:28:10.645Z,101043.91
2022-12-03T23:30:39.361Z,101045.78
2022-12-03T23:33:07.135Z,101040.59
2022-12-03T23:35:34.001Z,101049.16
2022-12-03T23:38:01.048Z,101043.72
2022-12-03T23:40:27.974Z,101047.91
2022-12-03T23:42:55.148Z,101049.16
2022-12-03T23:45:22.044Z,101046.53
2022-12-03T23:47:52.358Z,101061.03
2022-12-03T23:50:21.989Z,101058.88
2022-12-03T23:52:49.153Z,101055.22
2022-12-03T23:55:16.073Z,101059.41
2022-12-03T23:57:42.919Z,101063.66
